Terminal Aerodrome Forecast
Issued by NWS

Home | Current Version | Previous Version | Text Only | Print | Product List | Glossary On
Versions: 1 2 3 4 5 6 7 8 9 10 11 12 13 14 15 16 17 18
000
FTUS46 KMTR 110621 AAA
TAFSTS
TAF AMD
KSTS 110621Z 1106/1206 00000KT 1/2SM FG VV002
     FM111700 00000KT 3SM BR SCT200
     FM111800 33004KT P6SM BKN200
     FM120400 VRB03KT P6SM BKN120=

USA.gov is the U.S. government's official web portal to all federal, state and local government web resources and services.